Unser Flugplatzteam

Segelflugzeugschlepp am Flugplatz Konstanz

Unsere freundlichen Mitarbeiter stehen Ihnen gerne mit Rat und Tat zur Seite:

Robert Leitner

Flugleiter, Landesbeauftragter für Luftaufsicht am Verkehrlandeplatz Konstanz

Minky Schweizer

Flugleiterin

Live am Platz

Die Bilder unserer Webcams werden alle 5 Minuten aktualisiert.

Sonnenaufgang:

06:24 UTC / 07:24 Lokal

Sonnenuntergang:

16:49 UTC / 17:49 Lokal

METAR (17.02.2020 19:20 UTC):

EDNY 171820Z 23011KT 9999 -RA BKN026 BKN032 OVC052 08/05 Q1022
MVFR

TAF (17.02.2020 18:00 UTC):

TAF EDNY 171700Z 1718/1818 24010KT 9999 FEW020 BKN030 BECMG 1816/1818 24005KT

Alle Angaben unverbindlich und ohne Gewähr. Zeiten genähert.

Für den Verkehrslandeplatz Konstanz werden keine offiziellen Wetterinformationen ausgegeben. Daher werden zur Orientierung Daten des nahegelegenen Flughafens Friedrichshafen dargestellt.

Flugwetterdaten zur Verfügung gestellt von wippich.aero.